sensor_id;sensor_type;location;lat;lon;timestamp;P1;durP1;ratioP1;P2;durP2;ratioP2
17794;SDS011;9021;50.882;4.326;2022-10-23T00:01:14;19.48;;;3.95;;
17794;SDS011;9021;50.882;4.326;2022-10-23T00:03:41;11.27;;;3.60;;
17794;SDS011;9021;50.882;4.326;2022-10-23T00:06:07;14.15;;;4.10;;
17794;SDS011;9021;50.882;4.326;2022-10-23T00:08:33;13.02;;;4.00;;
17794;SDS011;9021;50.882;4.326;2022-10-23T00:10:59;15.48;;;4.32;;
17794;SDS011;9021;50.882;4.326;2022-10-23T00:13:24;11.45;;;4.28;;
17794;SDS011;9021;50.882;4.326;2022-10-23T00:15:50;10.65;;;3.80;;
17794;SDS011;9021;50.882;4.326;2022-10-23T00:18:15;10.38;;;4.00;;
17794;SDS011;9021;50.882;4.326;2022-10-23T00:20:41;14.52;;;4.00;;
17794;SDS011;9021;50.882;4.326;2022-10-23T00:23:07;12.23;;;3.63;;
17794;SDS011;9021;50.882;4.326;2022-10-23T00:25:32;17.25;;;3.55;;
17794;SDS011;9021;50.882;4.326;2022-10-23T00:27:58;13.95;;;4.22;;
17794;SDS011;9021;50.882;4.326;2022-10-23T00:30:24;11.57;;;3.95;;
17794;SDS011;9021;50.882;4.326;2022-10-23T00:32:49;13.80;;;3.78;;
17794;SDS011;9021;50.882;4.326;2022-10-23T00:35:15;10.70;;;3.75;;
17794;SDS011;9021;50.882;4.326;2022-10-23T00:37:41;9.05;;;3.20;;
17794;SDS011;9021;50.882;4.326;2022-10-23T00:40:07;8.00;;;3.30;;
17794;SDS011;9021;50.882;4.326;2022-10-23T00:42:33;11.15;;;3.67;;
17794;SDS011;9021;50.882;4.326;2022-10-23T00:45:40;9.18;;;3.40;;
17794;SDS011;9021;50.882;4.326;2022-10-23T00:47:50;12.85;;;4.20;;
17794;SDS011;9021;50.882;4.326;2022-10-23T00:50:16;7.75;;;2.88;;
17794;SDS011;9021;50.882;4.326;2022-10-23T00:55:13;15.88;;;3.53;;
17794;SDS011;9021;50.882;4.326;2022-10-23T00:57:41;11.77;;;3.35;;
17794;SDS011;9021;50.882;4.326;2022-10-23T01:00:10;20.83;;;3.22;;
17794;SDS011;9021;50.882;4.326;2022-10-23T01:02:39;16.40;;;3.80;;
17794;SDS011;9021;50.882;4.326;2022-10-23T01:05:04;12.80;;;3.33;;
17794;SDS011;9021;50.882;4.326;2022-10-23T01:07:35;17.30;;;4.10;;
17794;SDS011;9021;50.882;4.326;2022-10-23T01:10:18;15.60;;;3.50;;
17794;SDS011;9021;50.882;4.326;2022-10-23T01:12:57;13.82;;;4.43;;
17794;SDS011;9021;50.882;4.326;2022-10-23T01:19:08;9.90;;;3.88;;
17794;SDS011;9021;50.882;4.326;2022-10-23T01:21:54;9.95;;;3.30;;
17794;SDS011;9021;50.882;4.326;2022-10-23T01:32:42;6.15;;;2.22;;
17794;SDS011;9021;50.882;4.326;2022-10-23T01:37:45;5.28;;;1.98;;
17794;SDS011;9021;50.882;4.326;2022-10-23T01:41:04;4.68;;;1.90;;
17794;SDS011;9021;50.882;4.326;2022-10-23T01:43:04;6.85;;;1.95;;
17794;SDS011;9021;50.882;4.326;2022-10-23T01:45:36;3.80;;;1.95;;
17794;SDS011;9021;50.882;4.326;2022-10-23T01:48:07;2.78;;;1.73;;
17794;SDS011;9021;50.882;4.326;2022-10-23T01:50:37;7.03;;;1.50;;
17794;SDS011;9021;50.882;4.326;2022-10-23T01:53:05;8.45;;;1.90;;
17794;SDS011;9021;50.882;4.326;2022-10-23T01:55:31;6.93;;;1.52;;
17794;SDS011;9021;50.882;4.326;2022-10-23T01:57:57;5.10;;;1.83;;
17794;SDS011;9021;50.882;4.326;2022-10-23T02:00:25;3.53;;;1.50;;
17794;SDS011;9021;50.882;4.326;2022-10-23T02:02:51;4.90;;;1.38;;
17794;SDS011;9021;50.882;4.326;2022-10-23T02:05:20;2.00;;;1.05;;
17794;SDS011;9021;50.882;4.326;2022-10-23T02:07:49;4.05;;;1.65;;
17794;SDS011;9021;50.882;4.326;2022-10-23T02:10:15;6.25;;;1.60;;
17794;SDS011;9021;50.882;4.326;2022-10-23T02:12:45;3.17;;;1.33;;
17794;SDS011;9021;50.882;4.326;2022-10-23T02:21:10;4.30;;;1.27;;
17794;SDS011;9021;50.882;4.326;2022-10-23T02:26:15;6.10;;;1.80;;
17794;SDS011;9021;50.882;4.326;2022-10-23T02:28:48;4.47;;;1.35;;
17794;SDS011;9021;50.882;4.326;2022-10-23T02:31:21;4.80;;;1.45;;
17794;SDS011;9021;50.882;4.326;2022-10-23T02:33:48;5.18;;;1.55;;
17794;SDS011;9021;50.882;4.326;2022-10-23T02:36:14;9.50;;;1.67;;
17794;SDS011;9021;50.882;4.326;2022-10-23T02:38:41;4.63;;;1.42;;
17794;SDS011;9021;50.882;4.326;2022-10-23T02:46:38;2.97;;;1.45;;
17794;SDS011;9021;50.882;4.326;2022-10-23T02:54:46;15.63;;;1.75;;
17794;SDS011;9021;50.882;4.326;2022-10-23T03:02:43;3.35;;;1.58;;
17794;SDS011;9021;50.882;4.326;2022-10-23T03:05:16;4.32;;;1.45;;
17794;SDS011;9021;50.882;4.326;2022-10-23T03:07:44;5.53;;;1.30;;
17794;SDS011;9021;50.882;4.326;2022-10-23T03:10:10;3.28;;;1.20;;
17794;SDS011;9021;50.882;4.326;2022-10-23T03:12:36;5.43;;;1.58;;
17794;SDS011;9021;50.882;4.326;2022-10-23T03:17:28;3.95;;;1.30;;
17794;SDS011;9021;50.882;4.326;2022-10-23T03:19:54;4.03;;;1.30;;
17794;SDS011;9021;50.882;4.326;2022-10-23T03:22:19;9.15;;;1.40;;
17794;SDS011;9021;50.882;4.326;2022-10-23T03:24:45;4.22;;;1.35;;
17794;SDS011;9021;50.882;4.326;2022-10-23T03:27:11;10.77;;;1.50;;
17794;SDS011;9021;50.882;4.326;2022-10-23T03:29:36;6.13;;;1.65;;
17794;SDS011;9021;50.882;4.326;2022-10-23T03:32:02;5.90;;;1.73;;
17794;SDS011;9021;50.882;4.326;2022-10-23T03:36:54;1.80;;;1.20;;
17794;SDS011;9021;50.882;4.326;2022-10-23T03:39:19;4.63;;;1.50;;
17794;SDS011;9021;50.882;4.326;2022-10-23T03:41:45;4.60;;;1.95;;
17794;SDS011;9021;50.882;4.326;2022-10-23T03:44:11;8.63;;;1.95;;
17794;SDS011;9021;50.882;4.326;2022-10-23T03:46:36;5.15;;;1.45;;
17794;SDS011;9021;50.882;4.326;2022-10-23T03:49:02;2.90;;;1.38;;
17794;SDS011;9021;50.882;4.326;2022-10-23T03:51:28;2.85;;;1.13;;
17794;SDS011;9021;50.882;4.326;2022-10-23T03:53:54;6.32;;;1.38;;
17794;SDS011;9021;50.882;4.326;2022-10-23T03:56:20;4.55;;;1.52;;
17794;SDS011;9021;50.882;4.326;2022-10-23T03:58:45;2.65;;;1.52;;
17794;SDS011;9021;50.882;4.326;2022-10-23T04:01:11;3.75;;;1.50;;
17794;SDS011;9021;50.882;4.326;2022-10-23T04:03:37;5.40;;;1.73;;
17794;SDS011;9021;50.882;4.326;2022-10-23T04:06:03;4.90;;;1.38;;
17794;SDS011;9021;50.882;4.326;2022-10-23T04:08:29;6.03;;;1.60;;
17794;SDS011;9021;50.882;4.326;2022-10-23T04:10:54;4.65;;;1.33;;
17794;SDS011;9021;50.882;4.326;2022-10-23T04:13:20;2.60;;;1.42;;
17794;SDS011;9021;50.882;4.326;2022-10-23T04:15:49;6.55;;;1.58;;
17794;SDS011;9021;50.882;4.326;2022-10-23T04:18:15;3.97;;;1.48;;
17794;SDS011;9021;50.882;4.326;2022-10-23T04:20:41;3.17;;;1.30;;
17794;SDS011;9021;50.882;4.326;2022-10-23T04:23:07;2.13;;;1.15;;
17794;SDS011;9021;50.882;4.326;2022-10-23T04:25:33;2.72;;;1.30;;
17794;SDS011;9021;50.882;4.326;2022-10-23T04:27:58;3.15;;;1.13;;
17794;SDS011;9021;50.882;4.326;2022-10-23T04:30:24;3.17;;;1.45;;
17794;SDS011;9021;50.882;4.326;2022-10-23T04:32:50;2.22;;;1.13;;
17794;SDS011;9021;50.882;4.326;2022-10-23T04:35:16;4.72;;;1.40;;
17794;SDS011;9021;50.882;4.326;2022-10-23T04:37:43;4.78;;;1.30;;
17794;SDS011;9021;50.882;4.326;2022-10-23T04:40:09;3.67;;;1.08;;
17794;SDS011;9021;50.882;4.326;2022-10-23T04:42:35;5.85;;;1.85;;
17794;SDS011;9021;50.882;4.326;2022-10-23T04:45:01;3.35;;;1.23;;
17794;SDS011;9021;50.882;4.326;2022-10-23T04:47:27;4.45;;;1.23;;
17794;SDS011;9021;50.882;4.326;2022-10-23T04:49:52;3.28;;;0.93;;
17794;SDS011;9021;50.882;4.326;2022-10-23T04:52:18;3.72;;;1.55;;
17794;SDS011;9021;50.882;4.326;2022-10-23T04:54:44;2.47;;;1.13;;
17794;SDS011;9021;50.882;4.326;2022-10-23T04:57:09;2.38;;;1.40;;
17794;SDS011;9021;50.882;4.326;2022-10-23T04:59:35;5.60;;;1.40;;
17794;SDS011;9021;50.882;4.326;2022-10-23T05:02:00;5.57;;;1.48;;
17794;SDS011;9021;50.882;4.326;2022-10-23T05:04:26;6.63;;;1.50;;
17794;SDS011;9021;50.882;4.326;2022-10-23T05:06:52;6.45;;;1.65;;
17794;SDS011;9021;50.882;4.326;2022-10-23T05:09:17;3.78;;;1.77;;
17794;SDS011;9021;50.882;4.326;2022-10-23T05:11:43;2.67;;;1.60;;
17794;SDS011;9021;50.882;4.326;2022-10-23T05:14:08;2.97;;;1.45;;
17794;SDS011;9021;50.882;4.326;2022-10-23T05:16:38;4.45;;;1.60;;
17794;SDS011;9021;50.882;4.326;2022-10-23T05:19:17;3.42;;;1.80;;
17794;SDS011;9021;50.882;4.326;2022-10-23T05:21:50;4.60;;;1.33;;
17794;SDS011;9021;50.882;4.326;2022-10-23T05:24:20;5.32;;;1.45;;
17794;SDS011;9021;50.882;4.326;2022-10-23T05:26:46;5.68;;;1.50;;
17794;SDS011;9021;50.882;4.326;2022-10-23T05:29:12;4.07;;;1.30;;
17794;SDS011;9021;50.882;4.326;2022-10-23T05:31:37;4.88;;;1.35;;
17794;SDS011;9021;50.882;4.326;2022-10-23T05:34:03;4.05;;;1.60;;
17794;SDS011;9021;50.882;4.326;2022-10-23T05:36:30;6.10;;;1.70;;
17794;SDS011;9021;50.882;4.326;2022-10-23T05:38:56;3.72;;;1.63;;
17794;SDS011;9021;50.882;4.326;2022-10-23T05:41:22;3.05;;;1.48;;
17794;SDS011;9021;50.882;4.326;2022-10-23T05:43:48;2.97;;;1.63;;
17794;SDS011;9021;50.882;4.326;2022-10-23T05:46:14;3.30;;;1.55;;
17794;SDS011;9021;50.882;4.326;2022-10-23T05:48:39;5.68;;;1.73;;
17794;SDS011;9021;50.882;4.326;2022-10-23T05:51:06;6.22;;;1.58;;
17794;SDS011;9021;50.882;4.326;2022-10-23T05:53:32;3.03;;;1.80;;
17794;SDS011;9021;50.882;4.326;2022-10-23T05:56:05;3.10;;;1.67;;
17794;SDS011;9021;50.882;4.326;2022-10-23T05:58:31;3.55;;;1.63;;
17794;SDS011;9021;50.882;4.326;2022-10-23T06:00:58;2.42;;;1.63;;
17794;SDS011;9021;50.882;4.326;2022-10-23T06:03:23;5.45;;;1.80;;
17794;SDS011;9021;50.882;4.326;2022-10-23T06:05:49;1.85;;;1.20;;
17794;SDS011;9021;50.882;4.326;2022-10-23T06:08:16;4.88;;;1.80;;
17794;SDS011;9021;50.882;4.326;2022-10-23T06:10:41;5.35;;;1.73;;
17794;SDS011;9021;50.882;4.326;2022-10-23T06:13:07;2.67;;;1.75;;
17794;SDS011;9021;50.882;4.326;2022-10-23T06:15:33;2.67;;;1.63;;
17794;SDS011;9021;50.882;4.326;2022-10-23T06:20:26;4.53;;;2.00;;
17794;SDS011;9021;50.882;4.326;2022-10-23T06:22:51;8.02;;;1.90;;
17794;SDS011;9021;50.882;4.326;2022-10-23T06:25:17;4.63;;;1.70;;
17794;SDS011;9021;50.882;4.326;2022-10-23T06:27:42;5.63;;;1.88;;
17794;SDS011;9021;50.882;4.326;2022-10-23T06:30:08;5.57;;;1.77;;
17794;SDS011;9021;50.882;4.326;2022-10-23T06:32:34;3.58;;;1.67;;
17794;SDS011;9021;50.882;4.326;2022-10-23T06:35:00;5.35;;;1.80;;
17794;SDS011;9021;50.882;4.326;2022-10-23T06:37:25;2.53;;;1.20;;
17794;SDS011;9021;50.882;4.326;2022-10-23T06:39:51;3.78;;;1.67;;
17794;SDS011;9021;50.882;4.326;2022-10-23T06:42:16;3.40;;;1.65;;
17794;SDS011;9021;50.882;4.326;2022-10-23T06:44:42;2.88;;;1.23;;
17794;SDS011;9021;50.882;4.326;2022-10-23T06:47:08;3.42;;;1.73;;
17794;SDS011;9021;50.882;4.326;2022-10-23T06:49:38;3.55;;;1.67;;
17794;SDS011;9021;50.882;4.326;2022-10-23T06:52:03;3.22;;;1.58;;
17794;SDS011;9021;50.882;4.326;2022-10-23T06:54:29;2.80;;;1.45;;
17794;SDS011;9021;50.882;4.326;2022-10-23T06:56:55;4.80;;;1.65;;
17794;SDS011;9021;50.882;4.326;2022-10-23T06:59:20;2.88;;;1.25;;
17794;SDS011;9021;50.882;4.326;2022-10-23T07:01:46;5.75;;;1.52;;
17794;SDS011;9021;50.882;4.326;2022-10-23T07:04:12;6.10;;;1.60;;
17794;SDS011;9021;50.882;4.326;2022-10-23T07:06:38;3.20;;;1.45;;
17794;SDS011;9021;50.882;4.326;2022-10-23T07:09:05;5.10;;;1.30;;
17794;SDS011;9021;50.882;4.326;2022-10-23T07:11:30;3.75;;;1.30;;
17794;SDS011;9021;50.882;4.326;2022-10-23T07:13:56;2.25;;;1.05;;
17794;SDS011;9021;50.882;4.326;2022-10-23T07:16:22;3.40;;;1.70;;
17794;SDS011;9021;50.882;4.326;2022-10-23T07:18:48;3.83;;;1.40;;
17794;SDS011;9021;50.882;4.326;2022-10-23T07:21:30;3.50;;;1.50;;
17794;SDS011;9021;50.882;4.326;2022-10-23T07:23:59;4.32;;;1.30;;
17794;SDS011;9021;50.882;4.326;2022-10-23T07:26:25;3.80;;;1.20;;
17794;SDS011;9021;50.882;4.326;2022-10-23T07:31:23;3.10;;;1.38;;
17794;SDS011;9021;50.882;4.326;2022-10-23T07:33:50;5.85;;;1.50;;
17794;SDS011;9021;50.882;4.326;2022-10-23T07:36:16;3.45;;;1.40;;
17794;SDS011;9021;50.882;4.326;2022-10-23T07:41:08;3.67;;;1.30;;
17794;SDS011;9021;50.882;4.326;2022-10-23T07:46:00;7.10;;;1.30;;
17794;SDS011;9021;50.882;4.326;2022-10-23T07:50:52;3.92;;;1.48;;
17794;SDS011;9021;50.882;4.326;2022-10-23T07:53:22;4.10;;;1.45;;
17794;SDS011;9021;50.882;4.326;2022-10-23T07:55:56;3.45;;;1.27;;
17794;SDS011;9021;50.882;4.326;2022-10-23T07:58:24;3.70;;;1.50;;
17794;SDS011;9021;50.882;4.326;2022-10-23T08:00:57;6.28;;;1.63;;
17794;SDS011;9021;50.882;4.326;2022-10-23T08:03:25;5.30;;;1.98;;
17794;SDS011;9021;50.882;4.326;2022-10-23T08:05:54;3.92;;;1.58;;
17794;SDS011;9021;50.882;4.326;2022-10-23T08:08:21;7.35;;;1.63;;
17794;SDS011;9021;50.882;4.326;2022-10-23T08:10:48;4.32;;;1.45;;
17794;SDS011;9021;50.882;4.326;2022-10-23T08:13:15;5.13;;;1.65;;
17794;SDS011;9021;50.882;4.326;2022-10-23T08:15:40;3.22;;;1.35;;
17794;SDS011;9021;50.882;4.326;2022-10-23T08:18:08;2.35;;;1.27;;
17794;SDS011;9021;50.882;4.326;2022-10-23T08:20:43;4.82;;;1.50;;
17794;SDS011;9021;50.882;4.326;2022-10-23T08:23:10;1.90;;;1.20;;
17794;SDS011;9021;50.882;4.326;2022-10-23T08:25:37;5.18;;;1.48;;
17794;SDS011;9021;50.882;4.326;2022-10-23T08:28:04;3.30;;;1.20;;
17794;SDS011;9021;50.882;4.326;2022-10-23T08:30:30;3.60;;;1.48;;
17794;SDS011;9021;50.882;4.326;2022-10-23T08:32:56;4.60;;;1.63;;
17794;SDS011;9021;50.882;4.326;2022-10-23T08:35:22;6.88;;;1.55;;
17794;SDS011;9021;50.882;4.326;2022-10-23T08:37:48;4.85;;;1.42;;
17794;SDS011;9021;50.882;4.326;2022-10-23T08:40:17;5.53;;;2.10;;
17794;SDS011;9021;50.882;4.326;2022-10-23T08:42:48;4.30;;;1.60;;
17794;SDS011;9021;50.882;4.326;2022-10-23T08:45:45;5.40;;;1.50;;
17794;SDS011;9021;50.882;4.326;2022-10-23T08:50:56;3.90;;;1.40;;
17794;SDS011;9021;50.882;4.326;2022-10-23T08:53:31;4.40;;;1.50;;
17794;SDS011;9021;50.882;4.326;2022-10-23T08:56:29;5.72;;;1.50;;
17794;SDS011;9021;50.882;4.326;2022-10-23T08:59:00;5.68;;;1.70;;
17794;SDS011;9021;50.882;4.326;2022-10-23T09:01:32;4.55;;;1.52;;
17794;SDS011;9021;50.882;4.326;2022-10-23T09:04:07;3.78;;;2.00;;
17794;SDS011;9021;50.882;4.326;2022-10-23T09:17:28;5.68;;;2.00;;
17794;SDS011;9021;50.882;4.326;2022-10-23T09:22:41;8.63;;;1.90;;
17794;SDS011;9021;50.882;4.326;2022-10-23T09:25:08;7.03;;;2.22;;
17794;SDS011;9021;50.882;4.326;2022-10-23T09:27:35;8.65;;;2.70;;
17794;SDS011;9021;50.882;4.326;2022-10-23T09:30:01;5.57;;;2.08;;
17794;SDS011;9021;50.882;4.326;2022-10-23T09:32:32;4.18;;;2.03;;
17794;SDS011;9021;50.882;4.326;2022-10-23T09:35:02;7.70;;;2.45;;
17794;SDS011;9021;50.882;4.326;2022-10-23T09:37:29;5.75;;;2.17;;
17794;SDS011;9021;50.882;4.326;2022-10-23T09:40:00;8.13;;;2.55;;
17794;SDS011;9021;50.882;4.326;2022-10-23T09:43:02;3.50;;;2.15;;
17794;SDS011;9021;50.882;4.326;2022-10-23T09:45:37;6.35;;;2.40;;
17794;SDS011;9021;50.882;4.326;2022-10-23T09:48:10;8.32;;;2.28;;
17794;SDS011;9021;50.882;4.326;2022-10-23T09:50:36;10.27;;;2.50;;
17794;SDS011;9021;50.882;4.326;2022-10-23T09:53:08;4.80;;;1.65;;
17794;SDS011;9021;50.882;4.326;2022-10-23T09:55:41;6.72;;;2.15;;
17794;SDS011;9021;50.882;4.326;2022-10-23T09:58:17;5.75;;;2.15;;
17794;SDS011;9021;50.882;4.326;2022-10-23T10:00:45;5.70;;;2.03;;
17794;SDS011;9021;50.882;4.326;2022-10-23T10:03:18;6.13;;;2.28;;
17794;SDS011;9021;50.882;4.326;2022-10-23T10:05:52;5.40;;;2.40;;
17794;SDS011;9021;50.882;4.326;2022-10-23T10:08:25;8.48;;;2.45;;
17794;SDS011;9021;50.882;4.326;2022-10-23T10:10:53;4.95;;;1.98;;
17794;SDS011;9021;50.882;4.326;2022-10-23T10:13:37;5.97;;;2.30;;
17794;SDS011;9021;50.882;4.326;2022-10-23T10:22:40;5.45;;;2.20;;
17794;SDS011;9021;50.882;4.326;2022-10-23T10:30:44;6.38;;;2.58;;
17794;SDS011;9021;50.882;4.326;2022-10-23T10:39:33;4.93;;;2.20;;
17794;SDS011;9021;50.882;4.326;2022-10-23T10:42:09;7.65;;;2.30;;
17794;SDS011;9021;50.882;4.326;2022-10-23T10:45:07;10.10;;;2.50;;
17794;SDS011;9021;50.882;4.326;2022-10-23T10:50:16;6.03;;;2.38;;
17794;SDS011;9021;50.882;4.326;2022-10-23T10:53:10;5.45;;;2.85;;
17794;SDS011;9021;50.882;4.326;2022-10-23T10:55:41;5.40;;;2.63;;
17794;SDS011;9021;50.882;4.326;2022-10-23T10:58:16;5.82;;;2.35;;
17794;SDS011;9021;50.882;4.326;2022-10-23T11:04:33;7.90;;;2.92;;
17794;SDS011;9021;50.882;4.326;2022-10-23T11:06:56;7.25;;;2.88;;
17794;SDS011;9021;50.882;4.326;2022-10-23T11:09:27;7.43;;;2.63;;
17794;SDS011;9021;50.882;4.326;2022-10-23T11:11:54;6.35;;;2.55;;
17794;SDS011;9021;50.882;4.326;2022-10-23T11:14:21;8.07;;;2.53;;
17794;SDS011;9021;50.882;4.326;2022-10-23T11:17:09;6.85;;;2.60;;
17794;SDS011;9021;50.882;4.326;2022-10-23T11:19:44;6.63;;;2.88;;
17794;SDS011;9021;50.882;4.326;2022-10-23T11:22:31;4.72;;;2.20;;
17794;SDS011;9021;50.882;4.326;2022-10-23T11:28:00;6.95;;;2.83;;
17794;SDS011;9021;50.882;4.326;2022-10-23T11:34:01;7.28;;;2.72;;
17794;SDS011;9021;50.882;4.326;2022-10-23T11:36:55;6.68;;;2.30;;
17794;SDS011;9021;50.882;4.326;2022-10-23T11:41:54;8.65;;;2.42;;
17794;SDS011;9021;50.882;4.326;2022-10-23T11:47:26;6.03;;;2.40;;
17794;SDS011;9021;50.882;4.326;2022-10-23T11:55:04;7.78;;;2.70;;
17794;SDS011;9021;50.882;4.326;2022-10-23T11:57:58;5.57;;;2.08;;
17794;SDS011;9021;50.882;4.326;2022-10-23T12:00:58;5.30;;;2.10;;
17794;SDS011;9021;50.882;4.326;2022-10-23T12:03:37;3.88;;;1.83;;
17794;SDS011;9021;50.882;4.326;2022-10-23T12:06:06;5.25;;;1.85;;
17794;SDS011;9021;50.882;4.326;2022-10-23T12:08:44;6.07;;;2.05;;
17794;SDS011;9021;50.882;4.326;2022-10-23T12:16:54;6.13;;;2.08;;
17794;SDS011;9021;50.882;4.326;2022-10-23T12:19:20;5.97;;;1.90;;
17794;SDS011;9021;50.882;4.326;2022-10-23T12:21:51;5.65;;;2.22;;
17794;SDS011;9021;50.882;4.326;2022-10-23T12:40:31;4.63;;;2.25;;
17794;SDS011;9021;50.882;4.326;2022-10-23T12:42:57;9.10;;;2.90;;
17794;SDS011;9021;50.882;4.326;2022-10-23T12:45:35;5.68;;;2.50;;
17794;SDS011;9021;50.882;4.326;2022-10-23T12:48:04;5.55;;;2.30;;
17794;SDS011;9021;50.882;4.326;2022-10-23T12:52:58;6.65;;;2.40;;
17794;SDS011;9021;50.882;4.326;2022-10-23T12:55:29;7.75;;;2.40;;
17794;SDS011;9021;50.882;4.326;2022-10-23T12:58:17;4.90;;;2.08;;
17794;SDS011;9021;50.882;4.326;2022-10-23T13:00:54;6.13;;;3.00;;
17794;SDS011;9021;50.882;4.326;2022-10-23T13:03:22;7.03;;;2.30;;
17794;SDS011;9021;50.882;4.326;2022-10-23T13:05:49;7.15;;;2.38;;
17794;SDS011;9021;50.882;4.326;2022-10-23T13:08:16;5.63;;;2.50;;
17794;SDS011;9021;50.882;4.326;2022-10-23T13:10:44;6.93;;;2.20;;
17794;SDS011;9021;50.882;4.326;2022-10-23T13:13:11;3.63;;;1.85;;
17794;SDS011;9021;50.882;4.326;2022-10-23T13:15:39;7.40;;;1.92;;
17794;SDS011;9021;50.882;4.326;2022-10-23T13:18:07;3.90;;;1.77;;
17794;SDS011;9021;50.882;4.326;2022-10-23T13:20:35;4.10;;;2.05;;
17794;SDS011;9021;50.882;4.326;2022-10-23T13:23:18;8.55;;;1.70;;
17794;SDS011;9021;50.882;4.326;2022-10-23T13:25:55;5.40;;;1.60;;
17794;SDS011;9021;50.882;4.326;2022-10-23T13:31:06;5.55;;;1.70;;
17794;SDS011;9021;50.882;4.326;2022-10-23T13:33:50;2.85;;;1.30;;
17794;SDS011;9021;50.882;4.326;2022-10-23T13:36:29;2.00;;;1.20;;
17794;SDS011;9021;50.882;4.326;2022-10-23T13:38:59;4.35;;;1.67;;
17794;SDS011;9021;50.882;4.326;2022-10-23T13:41:33;5.60;;;1.70;;
17794;SDS011;9021;50.882;4.326;2022-10-23T13:44:01;6.20;;;1.95;;
17794;SDS011;9021;50.882;4.326;2022-10-23T13:46:27;3.03;;;1.52;;
17794;SDS011;9021;50.882;4.326;2022-10-23T13:48:53;3.83;;;1.70;;
17794;SDS011;9021;50.882;4.326;2022-10-23T13:51:28;7.05;;;2.00;;
17794;SDS011;9021;50.882;4.326;2022-10-23T13:53:57;4.00;;;1.55;;
17794;SDS011;9021;50.882;4.326;2022-10-23T13:56:24;3.58;;;1.50;;
17794;SDS011;9021;50.882;4.326;2022-10-23T13:58:50;6.72;;;1.73;;
17794;SDS011;9021;50.882;4.326;2022-10-23T14:03:57;3.92;;;1.65;;
17794;SDS011;9021;50.882;4.326;2022-10-23T14:06:23;3.00;;;1.60;;
17794;SDS011;9021;50.882;4.326;2022-10-23T14:08:49;6.22;;;1.70;;
17794;SDS011;9021;50.882;4.326;2022-10-23T14:11:15;4.53;;;1.98;;
17794;SDS011;9021;50.882;4.326;2022-10-23T14:13:43;6.25;;;2.03;;
17794;SDS011;9021;50.882;4.326;2022-10-23T14:16:10;4.93;;;2.60;;
17794;SDS011;9021;50.882;4.326;2022-10-23T14:18:37;6.00;;;2.00;;
17794;SDS011;9021;50.882;4.326;2022-10-23T14:21:03;5.82;;;1.92;;
17794;SDS011;9021;50.882;4.326;2022-10-23T14:23:30;7.40;;;2.00;;
17794;SDS011;9021;50.882;4.326;2022-10-23T14:26:02;4.82;;;2.42;;
17794;SDS011;9021;50.882;4.326;2022-10-23T14:28:29;5.75;;;2.80;;
17794;SDS011;9021;50.882;4.326;2022-10-23T14:30:55;4.43;;;1.98;;
17794;SDS011;9021;50.882;4.326;2022-10-23T14:33:21;4.10;;;1.98;;
17794;SDS011;9021;50.882;4.326;2022-10-23T14:38:15;6.63;;;2.03;;
17794;SDS011;9021;50.882;4.326;2022-10-23T14:40:41;7.18;;;2.63;;
17794;SDS011;9021;50.882;4.326;2022-10-23T14:45:32;5.47;;;2.65;;
17794;SDS011;9021;50.882;4.326;2022-10-23T14:50:25;5.60;;;2.33;;
17794;SDS011;9021;50.882;4.326;2022-10-23T14:55:16;4.78;;;2.10;;
17794;SDS011;9021;50.882;4.326;2022-10-23T15:00:08;10.15;;;2.90;;
17794;SDS011;9021;50.882;4.326;2022-10-23T15:02:35;9.80;;;2.97;;
17794;SDS011;9021;50.882;4.326;2022-10-23T15:05:01;5.60;;;3.08;;
17794;SDS011;9021;50.882;4.326;2022-10-23T15:07:27;3.58;;;2.33;;
17794;SDS011;9021;50.882;4.326;2022-10-23T15:09:52;5.45;;;2.55;;
17794;SDS011;9021;50.882;4.326;2022-10-23T15:12:19;8.60;;;2.92;;
17794;SDS011;9021;50.882;4.326;2022-10-23T15:14:48;6.75;;;3.13;;
17794;SDS011;9021;50.882;4.326;2022-10-23T15:17:14;13.50;;;3.67;;
17794;SDS011;9021;50.882;4.326;2022-10-23T15:19:39;7.70;;;3.17;;
17794;SDS011;9021;50.882;4.326;2022-10-23T15:22:05;7.85;;;3.40;;
17794;SDS011;9021;50.882;4.326;2022-10-23T15:24:30;6.95;;;3.38;;
17794;SDS011;9021;50.882;4.326;2022-10-23T15:26:56;10.48;;;3.20;;
17794;SDS011;9021;50.882;4.326;2022-10-23T15:29:23;6.05;;;2.70;;
17794;SDS011;9021;50.882;4.326;2022-10-23T15:31:53;8.45;;;3.35;;
17794;SDS011;9021;50.882;4.326;2022-10-23T15:34:22;7.90;;;3.10;;
17794;SDS011;9021;50.882;4.326;2022-10-23T15:36:50;4.55;;;2.78;;
17794;SDS011;9021;50.882;4.326;2022-10-23T15:39:18;7.13;;;3.00;;
17794;SDS011;9021;50.882;4.326;2022-10-23T15:41:45;8.27;;;3.63;;
17794;SDS011;9021;50.882;4.326;2022-10-23T15:46:39;8.65;;;3.25;;
17794;SDS011;9021;50.882;4.326;2022-10-23T15:51:32;8.43;;;2.80;;
17794;SDS011;9021;50.882;4.326;2022-10-23T15:53:58;7.30;;;2.90;;
17794;SDS011;9021;50.882;4.326;2022-10-23T15:56:23;7.35;;;3.10;;
17794;SDS011;9021;50.882;4.326;2022-10-23T15:58:49;8.90;;;3.45;;
17794;SDS011;9021;50.882;4.326;2022-10-23T16:01:15;7.78;;;2.70;;
17794;SDS011;9021;50.882;4.326;2022-10-23T16:03:41;5.70;;;2.60;;
17794;SDS011;9021;50.882;4.326;2022-10-23T16:06:07;7.57;;;3.13;;
17794;SDS011;9021;50.882;4.326;2022-10-23T16:08:34;7.65;;;2.85;;
17794;SDS011;9021;50.882;4.326;2022-10-23T16:11:00;7.88;;;3.28;;
17794;SDS011;9021;50.882;4.326;2022-10-23T16:15:52;7.47;;;2.88;;
17794;SDS011;9021;50.882;4.326;2022-10-23T16:18:20;5.57;;;2.38;;
17794;SDS011;9021;50.882;4.326;2022-10-23T16:20:47;6.82;;;2.50;;
17794;SDS011;9021;50.882;4.326;2022-10-23T16:23:14;6.38;;;2.45;;
17794;SDS011;9021;50.882;4.326;2022-10-23T16:25:40;6.82;;;3.25;;
17794;SDS011;9021;50.882;4.326;2022-10-23T16:28:06;6.22;;;3.35;;
17794;SDS011;9021;50.882;4.326;2022-10-23T16:30:31;6.53;;;2.90;;
17794;SDS011;9021;50.882;4.326;2022-10-23T16:32:57;8.60;;;3.05;;
17794;SDS011;9021;50.882;4.326;2022-10-23T16:35:23;9.25;;;2.88;;
17794;SDS011;9021;50.882;4.326;2022-10-23T16:37:48;6.72;;;3.00;;
17794;SDS011;9021;50.882;4.326;2022-10-23T16:40:14;9.45;;;2.30;;
17794;SDS011;9021;50.882;4.326;2022-10-23T16:42:40;6.07;;;2.63;;
17794;SDS011;9021;50.882;4.326;2022-10-23T16:45:06;5.10;;;2.67;;
17794;SDS011;9021;50.882;4.326;2022-10-23T16:47:33;8.10;;;2.88;;
17794;SDS011;9021;50.882;4.326;2022-10-23T16:49:59;7.18;;;2.85;;
17794;SDS011;9021;50.882;4.326;2022-10-23T16:52:25;5.05;;;2.53;;
17794;SDS011;9021;50.882;4.326;2022-10-23T16:54:51;5.38;;;2.70;;
17794;SDS011;9021;50.882;4.326;2022-10-23T16:57:17;6.20;;;2.75;;
17794;SDS011;9021;50.882;4.326;2022-10-23T16:59:43;7.90;;;3.42;;
17794;SDS011;9021;50.882;4.326;2022-10-23T17:02:09;8.13;;;3.20;;
17794;SDS011;9021;50.882;4.326;2022-10-23T17:04:35;9.35;;;3.67;;
17794;SDS011;9021;50.882;4.326;2022-10-23T17:07:01;8.23;;;3.38;;
17794;SDS011;9021;50.882;4.326;2022-10-23T17:09:27;5.25;;;2.83;;
17794;SDS011;9021;50.882;4.326;2022-10-23T17:11:55;10.18;;;3.50;;
17794;SDS011;9021;50.882;4.326;2022-10-23T17:14:21;12.85;;;4.20;;
17794;SDS011;9021;50.882;4.326;2022-10-23T17:16:53;7.57;;;3.60;;
17794;SDS011;9021;50.882;4.326;2022-10-23T17:19:20;7.82;;;3.20;;
17794;SDS011;9021;50.882;4.326;2022-10-23T17:21:50;8.95;;;3.22;;
17794;SDS011;9021;50.882;4.326;2022-10-23T17:24:17;9.05;;;3.47;;
17794;SDS011;9021;50.882;4.326;2022-10-23T17:29:10;5.47;;;3.13;;
17794;SDS011;9021;50.882;4.326;2022-10-23T17:31:39;6.57;;;3.17;;
17794;SDS011;9021;50.882;4.326;2022-10-23T17:34:10;11.43;;;4.75;;
17794;SDS011;9021;50.882;4.326;2022-10-23T17:36:38;10.38;;;4.20;;
17794;SDS011;9021;50.882;4.326;2022-10-23T17:39:07;7.00;;;2.55;;
17794;SDS011;9021;50.882;4.326;2022-10-23T17:41:34;7.88;;;2.83;;
17794;SDS011;9021;50.882;4.326;2022-10-23T17:44:01;6.40;;;2.90;;
17794;SDS011;9021;50.882;4.326;2022-10-23T17:48:56;6.07;;;2.40;;
17794;SDS011;9021;50.882;4.326;2022-10-23T17:51:23;7.10;;;2.22;;
17794;SDS011;9021;50.882;4.326;2022-10-23T17:53:51;5.70;;;2.08;;
17794;SDS011;9021;50.882;4.326;2022-10-23T17:56:22;7.80;;;2.10;;
17794;SDS011;9021;50.882;4.326;2022-10-23T17:58:50;5.55;;;2.10;;
17794;SDS011;9021;50.882;4.326;2022-10-23T18:01:18;7.68;;;2.60;;